createdAt,value
2023-03-10T00:00:23.090Z,36.90
2023-03-10T00:02:51.617Z,36.00
2023-03-10T00:05:21.601Z,32.03
2023-03-10T00:07:50.694Z,35.13
2023-03-10T00:10:19.115Z,30.50
2023-03-10T00:12:46.781Z,35.90
2023-03-10T00:15:14.691Z,35.63
2023-03-10T00:17:42.632Z,33.13
2023-03-10T00:20:12.900Z,34.43
2023-03-10T00:22:42.615Z,35.97
2023-03-10T00:25:11.416Z,40.70
2023-03-10T00:27:39.896Z,34.73
2023-03-10T00:30:09.291Z,37.93
2023-03-10T00:32:37.224Z,35.53
2023-03-10T00:35:06.132Z,38.37
2023-03-10T00:37:37.546Z,37.20
2023-03-10T00:40:09.857Z,37.00
2023-03-10T00:42:37.549Z,37.17
2023-03-10T00:45:05.856Z,35.10
2023-03-10T00:47:33.594Z,36.33
2023-03-10T00:50:01.451Z,36.93
2023-03-10T00:52:32.917Z,35.23
2023-03-10T00:55:00.591Z,33.67
2023-03-10T00:57:29.653Z,39.27
2023-03-10T00:59:57.861Z,38.17
2023-03-10T01:02:25.524Z,33.60
2023-03-10T01:04:53.186Z,35.00
2023-03-10T01:07:20.871Z,35.07
2023-03-10T01:09:48.546Z,35.80
2023-03-10T01:12:16.359Z,33.23
2023-03-10T01:14:45.789Z,32.60
2023-03-10T01:17:13.492Z,31.27
2023-03-10T01:19:41.201Z,33.10
2023-03-10T01:22:09.114Z,32.90
2023-03-10T01:24:36.753Z,34.13
2023-03-10T01:27:04.597Z,34.63
2023-03-10T01:29:32.314Z,35.13
2023-03-10T01:32:01.783Z,31.77
2023-03-10T01:34:31.704Z,34.40
2023-03-10T01:36:59.537Z,35.33
2023-03-10T01:39:27.322Z,32.37
2023-03-10T01:41:55.040Z,38.27
2023-03-10T01:44:22.846Z,35.47
2023-03-10T01:46:54.335Z,34.07
2023-03-10T01:49:41.207Z,33.93
2023-03-10T01:52:11.986Z,36.17
2023-03-10T01:54:46.426Z,35.33
2023-03-10T01:57:15.486Z,36.60
2023-03-10T01:59:43.197Z,38.93
2023-03-10T02:02:11.349Z,37.93
2023-03-10T02:04:43.279Z,37.73
2023-03-10T02:07:11.268Z,36.43
2023-03-10T02:09:42.282Z,36.60
2023-03-10T02:12:10.741Z,36.77
2023-03-10T02:14:38.955Z,38.40
2023-03-10T02:17:08.679Z,35.23
2023-03-10T02:19:48.675Z,31.70
2023-03-10T02:22:17.178Z,36.50
2023-03-10T02:24:52.226Z,34.33
2023-03-10T02:27:24.682Z,34.73
2023-03-10T02:29:59.706Z,34.50
2023-03-10T02:32:34.306Z,36.13
2023-03-10T02:35:02.431Z,34.40
2023-03-10T02:37:33.215Z,37.53
2023-03-10T02:40:01.137Z,34.43
2023-03-10T02:42:32.464Z,36.00
2023-03-10T02:45:00.556Z,35.77
2023-03-10T02:47:28.299Z,35.93
2023-03-10T02:49:56.007Z,36.23
2023-03-10T02:52:28.200Z,36.47
2023-03-10T02:54:56.030Z,37.73
2023-03-10T02:57:23.707Z,37.30
2023-03-10T02:59:52.990Z,38.40
2023-03-10T03:02:20.723Z,35.97
2023-03-10T03:04:48.698Z,40.73
2023-03-10T03:07:16.424Z,34.43
2023-03-10T03:09:44.142Z,35.57
2023-03-10T03:12:11.910Z,36.80
2023-03-10T03:14:39.689Z,35.97
2023-03-10T03:17:09.443Z,37.73
2023-03-10T03:19:37.348Z,35.97
2023-03-10T03:22:05.178Z,35.50
2023-03-10T03:24:33.095Z,34.07
2023-03-10T03:27:00.829Z,39.50
2023-03-10T03:29:30.122Z,41.10
2023-03-10T03:31:58.673Z,35.23
2023-03-10T03:34:31.984Z,36.10
2023-03-10T03:37:03.250Z,33.93
2023-03-10T03:39:37.706Z,32.87
2023-03-10T03:42:08.525Z,30.97
2023-03-10T03:44:44.781Z,36.53
2023-03-10T03:47:13.299Z,33.00
2023-03-10T03:49:42.622Z,34.07
2023-03-10T03:52:12.082Z,32.83
2023-03-10T03:54:39.806Z,32.97
2023-03-10T03:57:07.535Z,31.97
2023-03-10T03:59:36.306Z,33.17
2023-03-10T04:02:04.058Z,33.50
2023-03-10T04:04:32.552Z,34.30
2023-03-10T04:07:02.098Z,34.30
2023-03-10T04:09:31.002Z,33.27
2023-03-10T04:11:59.053Z,32.77
2023-03-10T04:14:27.258Z,31.60
2023-03-10T04:16:56.944Z,31.50
2023-03-10T04:19:24.721Z,32.33
2023-03-10T04:21:57.529Z,30.57
2023-03-10T04:24:27.307Z,37.53
2023-03-10T04:26:55.449Z,35.97
2023-03-10T04:29:24.433Z,31.27
2023-03-10T04:32:04.725Z,31.23
2023-03-10T04:34:34.765Z,31.50
2023-03-10T04:37:03.356Z,31.83
2023-03-10T04:39:32.427Z,31.47
2023-03-10T04:42:00.232Z,36.67
2023-03-10T04:44:31.368Z,33.83
2023-03-10T04:47:01.818Z,37.63
2023-03-10T04:49:29.869Z,36.43
2023-03-10T04:51:58.710Z,34.87
2023-03-10T04:54:26.560Z,33.23
2023-03-10T04:56:56.662Z,36.77
2023-03-10T04:59:24.460Z,33.97
2023-03-10T05:01:52.573Z,35.13
2023-03-10T05:04:20.751Z,37.07
2023-03-10T05:06:51.206Z,34.03
2023-03-10T05:09:36.805Z,33.80
2023-03-10T05:12:07.236Z,32.57
2023-03-10T05:14:38.109Z,31.33
2023-03-10T05:17:06.973Z,30.83
2023-03-10T05:19:35.077Z,34.93
2023-03-10T05:22:04.022Z,33.17
2023-03-10T05:24:34.572Z,29.83
2023-03-10T05:27:03.387Z,33.93
2023-03-10T05:29:33.131Z,33.00
2023-03-10T05:32:09.042Z,34.03
2023-03-10T05:34:39.913Z,34.23
2023-03-10T05:37:08.585Z,32.60
2023-03-10T05:39:36.464Z,33.27
2023-03-10T05:42:09.565Z,32.47
2023-03-10T05:44:39.354Z,32.43
2023-03-10T05:47:08.334Z,29.07
2023-03-10T05:49:38.633Z,33.77
2023-03-10T05:52:07.678Z,29.57
2023-03-10T05:54:36.087Z,31.77
2023-03-10T05:57:04.514Z,32.33
2023-03-10T05:59:33.418Z,29.23
2023-03-10T06:02:02.529Z,28.13
2023-03-10T06:04:33.064Z,28.27
2023-03-10T06:07:01.545Z,27.07
2023-03-10T06:09:30.279Z,31.60
2023-03-10T06:11:58.280Z,28.35
2023-03-10T06:14:26.595Z,28.60
2023-03-10T06:16:55.130Z,28.50
2023-03-10T06:19:24.925Z,28.17
2023-03-10T06:21:52.591Z,28.17
2023-03-10T06:24:20.307Z,26.93
2023-03-10T06:26:47.987Z,29.17
2023-03-10T06:29:15.996Z,27.30
2023-03-10T06:31:43.731Z,28.67
2023-03-10T06:34:11.409Z,27.03
2023-03-10T06:36:41.805Z,27.77
2023-03-10T06:39:09.933Z,26.37
2023-03-10T06:41:38.066Z,27.50
2023-03-10T06:44:06.022Z,27.00
2023-03-10T06:46:34.204Z,25.63
2023-03-10T06:49:01.905Z,23.03
2023-03-10T06:51:29.517Z,25.53
2023-03-10T06:53:58.542Z,22.83
2023-03-10T06:56:26.165Z,24.10
2023-03-10T06:58:54.530Z,51.47
2023-03-10T07:01:25.447Z,24.07
2023-03-10T07:03:53.968Z,32.80
2023-03-10T07:06:22.645Z,30.00
2023-03-10T07:08:51.466Z,27.97
2023-03-10T07:11:21.455Z,27.50
2023-03-10T07:13:49.519Z,31.03
2023-03-10T07:16:17.513Z,30.17
2023-03-10T07:18:45.482Z,29.17
2023-03-10T07:21:15.962Z,29.63
2023-03-10T07:23:43.693Z,26.77
2023-03-10T07:26:12.999Z,30.93
2023-03-10T07:28:42.709Z,25.10
2023-03-10T07:31:12.432Z,27.33
2023-03-10T07:33:40.552Z,30.10
2023-03-10T07:36:10.726Z,27.67
2023-03-10T07:38:38.845Z,25.93
2023-03-10T07:41:10.438Z,24.37
2023-03-10T07:43:38.620Z,25.57
2023-03-10T07:46:09.382Z,24.40
2023-03-10T07:48:37.257Z,25.57
2023-03-10T07:51:05.633Z,22.30
2023-03-10T07:53:33.769Z,24.23
2023-03-10T07:56:05.411Z,22.83
2023-03-10T07:58:34.197Z,25.77
2023-03-10T08:01:02.914Z,23.17
2023-03-10T08:03:32.184Z,24.00
2023-03-10T08:05:59.818Z,21.73
2023-03-10T08:08:27.737Z,20.77
2023-03-10T08:11:01.765Z,21.83
2023-03-10T08:13:29.521Z,21.13
2023-03-10T08:15:59.832Z,21.67
2023-03-10T08:18:27.917Z,21.00
2023-03-10T08:20:57.874Z,19.07
2023-03-10T08:23:26.472Z,22.50
2023-03-10T08:25:54.413Z,21.70
2023-03-10T08:28:22.109Z,24.10
2023-03-10T08:31:03.615Z,21.73
2023-03-10T08:33:32.292Z,23.00
2023-03-10T08:36:05.951Z,23.47
2023-03-10T08:38:33.668Z,23.40
2023-03-10T08:41:09.516Z,23.00
2023-03-10T08:43:37.526Z,23.67
2023-03-10T08:46:08.329Z,24.77
2023-03-10T08:48:36.483Z,25.13
2023-03-10T08:51:06.599Z,25.20
2023-03-10T08:53:34.649Z,21.33
2023-03-10T08:56:02.352Z,25.57
2023-03-10T08:58:30.254Z,23.70
2023-03-10T09:00:58.373Z,26.50
2023-03-10T09:03:27.060Z,22.47
2023-03-10T09:05:55.903Z,23.97
2023-03-10T09:08:27.407Z,25.73
2023-03-10T09:10:55.405Z,21.70
2023-03-10T09:13:23.523Z,24.83
2023-03-10T09:15:52.791Z,24.37
2023-03-10T09:18:20.972Z,24.17
2023-03-10T09:20:48.748Z,23.17
2023-03-10T09:23:17.238Z,23.70
2023-03-10T09:25:46.423Z,22.07
2023-03-10T09:28:15.019Z,29.30
2023-03-10T09:30:44.014Z,21.23
2023-03-10T09:33:17.078Z,21.50
2023-03-10T09:35:52.853Z,22.13
2023-03-10T09:38:30.843Z,20.97
2023-03-10T09:41:08.540Z,21.47
2023-03-10T09:43:39.010Z,20.47
2023-03-10T09:46:15.092Z,22.80
2023-03-10T09:48:51.100Z,19.77
2023-03-10T09:51:22.735Z,20.30
2023-03-10T09:54:01.841Z,21.73
2023-03-10T09:56:34.061Z,24.73
2023-03-10T09:59:08.083Z,18.70
2023-03-10T10:01:36.250Z,24.97
2023-03-10T10:04:08.061Z,23.73
2023-03-10T10:06:38.910Z,23.90
2023-03-10T10:09:09.852Z,24.43
2023-03-10T10:11:39.017Z,24.53
2023-03-10T10:14:27.890Z,26.40
2023-03-10T10:17:02.041Z,27.37
2023-03-10T10:19:30.307Z,28.30
2023-03-10T10:22:02.821Z,27.40
2023-03-10T10:24:30.781Z,21.63
2023-03-10T10:26:59.864Z,23.97
2023-03-10T10:29:30.351Z,21.93
2023-03-10T10:32:10.520Z,25.17
2023-03-10T10:34:40.137Z,22.43
2023-03-10T10:37:27.956Z,42.67
2023-03-10T10:39:57.278Z,26.05
2023-03-10T10:42:28.172Z,19.52
2023-03-10T10:44:57.795Z,23.52
2023-03-10T10:47:29.105Z,21.60
2023-03-10T10:50:10.564Z,21.52
2023-03-10T10:52:38.219Z,25.37
2023-03-10T10:55:06.828Z,22.00
2023-03-10T10:57:37.738Z,23.40
2023-03-10T11:00:26.572Z,22.67
2023-03-10T11:02:54.666Z,22.90
2023-03-10T11:05:24.988Z,21.70
2023-03-10T11:07:53.158Z,19.60
2023-03-10T11:10:22.425Z,20.90
2023-03-10T11:12:57.963Z,21.30
2023-03-10T11:15:30.870Z,18.58
2023-03-10T11:18:01.235Z,19.23
2023-03-10T11:20:32.691Z,20.08
2023-03-10T11:23:08.622Z,19.50
2023-03-10T11:25:39.811Z,21.07
2023-03-10T11:28:44.030Z,16.58
2023-03-10T11:31:22.986Z,20.27
2023-03-10T11:33:55.266Z,20.55
2023-03-10T11:36:43.301Z,25.65
2023-03-10T11:39:19.092Z,16.90
2023-03-10T11:41:50.240Z,23.17
2023-03-10T11:44:24.793Z,20.58
2023-03-10T11:46:59.708Z,19.87
2023-03-10T11:49:31.602Z,18.48
2023-03-10T11:52:01.026Z,17.38
2023-03-10T11:54:32.073Z,22.98
2023-03-10T11:57:02.095Z,19.58
2023-03-10T11:59:34.327Z,14.93
2023-03-10T12:02:06.578Z,21.83
2023-03-10T12:04:37.581Z,17.67
2023-03-10T12:07:07.772Z,17.97
2023-03-10T12:09:42.004Z,18.90
2023-03-10T12:12:15.446Z,15.50
2023-03-10T12:14:45.658Z,19.13
2023-03-10T12:17:15.550Z,17.98
2023-03-10T12:20:09.618Z,15.90
2023-03-10T12:22:39.057Z,23.92
2023-03-10T12:25:46.717Z,19.55
2023-03-10T12:28:26.319Z,17.88
2023-03-10T12:30:57.546Z,14.73
2023-03-10T12:33:45.186Z,14.95
2023-03-10T12:36:15.979Z,19.70
2023-03-10T12:38:49.966Z,14.07
2023-03-10T12:41:44.324Z,39.25
2023-03-10T12:44:48.805Z,18.25
2023-03-10T12:47:37.995Z,16.47
2023-03-10T12:50:23.980Z,13.03
2023-03-10T12:52:55.105Z,17.13
2023-03-10T12:55:25.131Z,14.23
2023-03-10T12:58:03.593Z,17.42
2023-03-10T13:00:40.359Z,15.55
2023-03-10T13:03:19.620Z,16.40
2023-03-10T13:05:58.911Z,13.40
2023-03-10T13:08:30.967Z,17.23
2023-03-10T13:11:00.234Z,17.67
2023-03-10T13:13:32.178Z,19.77
2023-03-10T13:16:01.023Z,22.73
2023-03-10T13:18:30.426Z,18.60
2023-03-10T13:21:01.537Z,16.23
2023-03-10T13:23:32.471Z,20.10
2023-03-10T13:26:01.550Z,19.40
2023-03-10T13:28:31.579Z,20.85
2023-03-10T13:31:19.179Z,22.70
2023-03-10T13:33:53.668Z,20.13
2023-03-10T13:36:24.129Z,21.98
2023-03-10T13:38:53.076Z,19.42
2023-03-10T13:41:20.786Z,22.50
2023-03-10T13:43:51.405Z,22.60
2023-03-10T13:46:22.742Z,23.63
2023-03-10T13:48:52.243Z,21.10
2023-03-10T13:51:22.408Z,26.30
2023-03-10T13:53:52.584Z,23.83
2023-03-10T13:56:22.991Z,23.67
2023-03-10T13:58:52.845Z,23.27
2023-03-10T14:01:23.577Z,29.07
2023-03-10T14:03:57.948Z,25.07
2023-03-10T14:06:26.600Z,26.80
2023-03-10T14:08:54.624Z,25.87
2023-03-10T14:11:25.121Z,23.57
2023-03-10T14:13:52.800Z,24.67
2023-03-10T14:16:20.523Z,22.83
2023-03-10T14:18:48.208Z,22.23
2023-03-10T14:21:33.402Z,27.52
2023-03-10T14:24:06.168Z,22.67
2023-03-10T14:26:34.553Z,22.40
2023-03-10T14:29:03.714Z,24.45
2023-03-10T14:31:31.717Z,23.47
2023-03-10T14:33:59.922Z,21.93
2023-03-10T14:36:27.808Z,23.40
2023-03-10T14:38:56.821Z,22.97
2023-03-10T14:41:25.228Z,20.20
2023-03-10T14:43:53.053Z,22.30
2023-03-10T14:46:22.138Z,21.93
2023-03-10T14:48:49.975Z,22.93
2023-03-10T14:51:32.612Z,22.57
2023-03-10T14:54:03.453Z,21.17
2023-03-10T14:56:31.542Z,26.17
2023-03-10T14:59:02.099Z,19.08
2023-03-10T15:01:30.369Z,21.42
2023-03-10T15:03:58.078Z,23.07
2023-03-10T15:06:25.702Z,22.23
2023-03-10T15:08:53.395Z,24.30
2023-03-10T15:11:36.226Z,22.30
2023-03-10T15:14:04.569Z,22.83
2023-03-10T15:16:32.195Z,23.65
2023-03-10T15:19:00.026Z,23.70
2023-03-10T15:21:27.722Z,25.20
2023-03-10T15:23:55.742Z,25.63
2023-03-10T15:26:24.978Z,22.20
2023-03-10T15:28:52.829Z,24.77
2023-03-10T15:31:20.641Z,24.57
2023-03-10T15:33:48.320Z,21.17
2023-03-10T15:36:16.120Z,21.15
2023-03-10T15:38:44.339Z,24.20
2023-03-10T15:41:12.982Z,26.53
2023-03-10T15:43:42.038Z,22.63
2023-03-10T15:46:10.361Z,26.33
2023-03-10T15:48:38.068Z,26.03
2023-03-10T15:51:09.811Z,24.20
2023-03-10T15:53:38.078Z,25.20
2023-03-10T15:56:07.573Z,25.27
2023-03-10T15:58:35.482Z,23.03
2023-03-10T16:01:08.677Z,20.65
2023-03-10T16:03:36.886Z,22.50
2023-03-10T16:06:04.889Z,22.27
2023-03-10T16:08:37.249Z,24.30
2023-03-10T16:11:09.074Z,25.33
2023-03-10T16:13:37.189Z,22.00
2023-03-10T16:16:09.085Z,26.00
2023-03-10T16:18:37.150Z,21.70
2023-03-10T16:21:05.218Z,21.50
2023-03-10T16:23:34.451Z,22.57
2023-03-10T16:26:11.009Z,26.17
2023-03-10T16:28:40.222Z,24.27
2023-03-10T16:31:10.296Z,22.00
2023-03-10T16:33:38.379Z,19.97
2023-03-10T16:36:08.839Z,22.20
2023-03-10T16:38:36.883Z,23.40
2023-03-10T16:41:05.209Z,20.73
2023-03-10T16:43:33.752Z,21.27
2023-03-10T16:46:09.249Z,24.10
2023-03-10T16:48:38.805Z,21.50
2023-03-10T16:51:19.098Z,25.27
2023-03-10T16:53:46.870Z,22.20
2023-03-10T16:56:15.184Z,22.07
2023-03-10T16:58:42.853Z,23.70
2023-03-10T17:01:12.133Z,23.73
2023-03-10T17:03:43.391Z,21.87
2023-03-10T17:06:12.756Z,22.60
2023-03-10T17:08:41.314Z,23.17
2023-03-10T17:11:17.811Z,22.10
2023-03-10T17:13:47.158Z,25.70
2023-03-10T17:16:16.995Z,22.10
2023-03-10T17:18:45.900Z,21.97
2023-03-10T17:21:15.269Z,22.33
2023-03-10T17:23:43.101Z,22.70
2023-03-10T17:26:12.003Z,26.07
2023-03-10T17:28:40.136Z,23.37
2023-03-10T17:31:08.749Z,26.00
2023-03-10T17:33:37.840Z,26.60
2023-03-10T17:36:06.593Z,25.20
2023-03-10T17:38:35.261Z,24.83
2023-03-10T17:41:05.495Z,25.73
2023-03-10T17:43:34.637Z,25.77
2023-03-10T17:46:04.455Z,25.27
2023-03-10T17:48:32.932Z,28.87
2023-03-10T17:51:02.860Z,27.97
2023-03-10T17:53:30.892Z,25.57
2023-03-10T17:55:58.909Z,29.13
2023-03-10T17:58:26.922Z,25.37
2023-03-10T18:00:54.962Z,28.93
2023-03-10T18:03:22.883Z,25.77
2023-03-10T18:05:50.582Z,30.47
2023-03-10T18:08:19.636Z,27.53
2023-03-10T18:10:47.414Z,29.13
2023-03-10T18:13:15.333Z,25.77
2023-03-10T18:15:43.094Z,26.40
2023-03-10T18:18:10.763Z,29.47
2023-03-10T18:20:38.997Z,27.13
2023-03-10T18:23:06.923Z,26.97
2023-03-10T18:25:36.195Z,28.37
2023-03-10T18:28:03.952Z,26.83
2023-03-10T18:30:31.609Z,30.50
2023-03-10T18:32:59.963Z,30.23
2023-03-10T18:35:27.767Z,30.40
2023-03-10T18:37:55.918Z,31.60
2023-03-10T18:40:23.821Z,32.10
2023-03-10T18:42:53.174Z,33.67
2023-03-10T18:45:21.385Z,36.70
2023-03-10T18:47:49.416Z,35.07
2023-03-10T18:50:17.524Z,34.47
2023-03-10T18:52:46.451Z,31.73
2023-03-10T18:55:14.811Z,30.87
2023-03-10T18:57:44.188Z,29.13
2023-03-10T19:00:16.109Z,33.23
2023-03-10T19:02:43.862Z,29.90
2023-03-10T19:05:13.769Z,34.97
2023-03-10T19:07:41.819Z,29.57
2023-03-10T19:10:13.180Z,34.17
2023-03-10T19:12:41.336Z,30.37
2023-03-10T19:15:10.193Z,31.13
2023-03-10T19:17:39.558Z,30.37
2023-03-10T19:20:11.176Z,29.73
2023-03-10T19:22:39.853Z,29.40
2023-03-10T19:25:09.806Z,28.60
2023-03-10T19:27:39.776Z,26.00
2023-03-10T19:30:11.428Z,24.63
2023-03-10T19:32:40.677Z,29.40
2023-03-10T19:35:09.690Z,30.07
2023-03-10T19:37:38.460Z,29.37
2023-03-10T19:40:08.598Z,31.40
2023-03-10T19:42:38.937Z,28.07
2023-03-10T19:45:08.277Z,26.80
2023-03-10T19:47:35.992Z,26.37
2023-03-10T19:50:05.877Z,29.93
2023-03-10T19:52:33.651Z,25.27
2023-03-10T19:55:01.416Z,21.80
2023-03-10T19:57:29.110Z,30.13
2023-03-10T19:59:56.860Z,25.73
2023-03-10T20:02:25.850Z,23.63
2023-03-10T20:04:53.602Z,23.53
2023-03-10T20:07:22.558Z,25.97
2023-03-10T20:09:50.246Z,26.00
2023-03-10T20:12:18.051Z,28.43
2023-03-10T20:14:45.697Z,28.67
2023-03-10T20:17:13.377Z,30.17
2023-03-10T20:19:43.310Z,31.37
2023-03-10T20:22:13.716Z,33.27
2023-03-10T20:24:42.861Z,36.33
2023-03-10T20:27:11.139Z,32.97
2023-03-10T20:29:38.836Z,34.13
2023-03-10T20:32:07.556Z,30.80
2023-03-10T20:34:35.583Z,26.77
2023-03-10T20:37:03.329Z,30.23
2023-03-10T20:39:31.077Z,28.53
2023-03-10T20:42:00.099Z,26.90
2023-03-10T20:44:27.820Z,28.70
2023-03-10T20:46:55.609Z,25.30
2023-03-10T20:49:23.536Z,26.10
2023-03-10T20:51:51.295Z,27.33
2023-03-10T20:54:19.171Z,24.43
2023-03-10T20:56:46.981Z,26.77
2023-03-10T20:59:15.980Z,23.07
2023-03-10T21:01:43.785Z,25.23
2023-03-10T21:04:11.489Z,22.60
2023-03-10T21:06:39.613Z,26.13
2023-03-10T21:09:07.416Z,23.40
2023-03-10T21:11:35.734Z,24.53
2023-03-10T21:14:03.728Z,21.50
2023-03-10T21:16:33.703Z,23.90
2023-03-10T21:19:01.373Z,24.50
2023-03-10T21:21:31.495Z,20.77
2023-03-10T21:23:59.229Z,24.00
2023-03-10T21:26:26.936Z,22.90
2023-03-10T21:28:55.068Z,20.70
2023-03-10T21:31:23.180Z,22.57
2023-03-10T21:33:52.351Z,23.47
2023-03-10T21:36:23.305Z,20.13
2023-03-10T21:38:52.544Z,21.00
2023-03-10T21:41:22.818Z,24.60
2023-03-10T21:43:50.870Z,22.77
2023-03-10T21:46:18.635Z,21.77
2023-03-10T21:48:46.866Z,22.73
2023-03-10T21:51:18.443Z,23.03
2023-03-10T21:53:46.731Z,23.20
2023-03-10T21:56:17.511Z,24.03
2023-03-10T21:58:45.896Z,27.23
2023-03-10T22:01:15.018Z,30.30
2023-03-10T22:03:42.973Z,25.10
2023-03-10T22:06:11.147Z,26.90
2023-03-10T22:08:40.754Z,23.47
2023-03-10T22:11:09.195Z,24.53
2023-03-10T22:13:38.305Z,27.63
2023-03-10T22:16:08.130Z,25.47
2023-03-10T22:18:35.936Z,24.07
2023-03-10T22:21:03.710Z,29.63
2023-03-10T22:23:31.443Z,22.33
2023-03-10T22:26:00.528Z,23.60
2023-03-10T22:28:28.469Z,25.00
2023-03-10T22:30:56.123Z,26.97
2023-03-10T22:33:23.874Z,27.60
2023-03-10T22:35:52.337Z,24.47
2023-03-10T22:38:20.825Z,24.53
2023-03-10T22:40:49.264Z,27.27
2023-03-10T22:43:18.618Z,27.03
2023-03-10T22:45:46.916Z,26.13
2023-03-10T22:48:14.639Z,26.60
2023-03-10T22:50:46.540Z,25.70
2023-03-10T22:53:15.608Z,31.10
2023-03-10T22:55:43.695Z,27.67
2023-03-10T22:58:11.947Z,25.67
2023-03-10T23:00:42.663Z,25.07
2023-03-10T23:03:11.515Z,27.77
2023-03-10T23:05:39.374Z,27.63
2023-03-10T23:08:07.114Z,25.23
2023-03-10T23:10:36.535Z,27.30
2023-03-10T23:13:06.389Z,25.80
2023-03-10T23:15:37.277Z,29.13
2023-03-10T23:18:07.811Z,28.00
2023-03-10T23:20:37.323Z,26.87
2023-03-10T23:23:06.908Z,26.97
2023-03-10T23:25:37.255Z,26.17
2023-03-10T23:28:06.933Z,25.60
2023-03-10T23:30:36.441Z,27.97
2023-03-10T23:33:04.306Z,28.30
2023-03-10T23:35:34.790Z,29.80
2023-03-10T23:38:04.204Z,26.47
2023-03-10T23:40:32.535Z,30.33
2023-03-10T23:43:01.759Z,30.27
2023-03-10T23:45:31.319Z,31.37
2023-03-10T23:48:01.210Z,29.90
2023-03-10T23:50:31.050Z,31.73
2023-03-10T23:53:00.628Z,29.73
2023-03-10T23:55:31.066Z,36.40
2023-03-10T23:57:58.823Z,34.00
